sensor_id;sensor_type;location;lat;lon;timestamp;P1;durP1;ratioP1;P2;durP2;ratioP2
72205;SDS011;60111;48.286;7.812;2023-09-18T00:00:30;10.80;;;2.40;;
72205;SDS011;60111;48.286;7.812;2023-09-18T00:03:03;8.00;;;2.20;;
72205;SDS011;60111;48.286;7.812;2023-09-18T00:05:36;5.25;;;1.87;;
72205;SDS011;60111;48.286;7.812;2023-09-18T00:08:08;6.75;;;2.20;;
72205;SDS011;60111;48.286;7.812;2023-09-18T00:10:41;4.87;;;2.15;;
72205;SDS011;60111;48.286;7.812;2023-09-18T00:15:47;9.18;;;2.10;;
72205;SDS011;60111;48.286;7.812;2023-09-18T00:18:22;12.25;;;2.40;;
72205;SDS011;60111;48.286;7.812;2023-09-18T00:20:54;10.43;;;2.10;;
72205;SDS011;60111;48.286;7.812;2023-09-18T00:23:27;7.07;;;2.30;;
72205;SDS011;60111;48.286;7.812;2023-09-18T00:25:59;7.58;;;2.52;;
72205;SDS011;60111;48.286;7.812;2023-09-18T00:28:32;5.40;;;2.20;;
72205;SDS011;60111;48.286;7.812;2023-09-18T00:31:04;7.00;;;2.10;;
72205;SDS011;60111;48.286;7.812;2023-09-18T00:33:37;5.78;;;2.20;;
72205;SDS011;60111;48.286;7.812;2023-09-18T00:36:10;6.70;;;2.02;;
72205;SDS011;60111;48.286;7.812;2023-09-18T00:38:43;3.00;;;1.90;;
72205;SDS011;60111;48.286;7.812;2023-09-18T00:41:15;8.80;;;2.45;;
72205;SDS011;60111;48.286;7.812;2023-09-18T00:43:48;10.28;;;2.08;;
72205;SDS011;60111;48.286;7.812;2023-09-18T00:46:21;9.88;;;2.20;;
72205;SDS011;60111;48.286;7.812;2023-09-18T00:48:54;11.83;;;2.17;;
72205;SDS011;60111;48.286;7.812;2023-09-18T00:51:27;10.43;;;2.35;;
72205;SDS011;60111;48.286;7.812;2023-09-18T00:53:59;5.00;;;2.33;;
72205;SDS011;60111;48.286;7.812;2023-09-18T00:56:32;5.43;;;2.20;;
72205;SDS011;60111;48.286;7.812;2023-09-18T00:59:05;5.47;;;2.33;;
72205;SDS011;60111;48.286;7.812;2023-09-18T01:01:39;7.05;;;2.62;;
72205;SDS011;60111;48.286;7.812;2023-09-18T01:04:14;9.20;;;2.45;;
72205;SDS011;60111;48.286;7.812;2023-09-18T01:06:49;5.95;;;2.50;;
72205;SDS011;60111;48.286;7.812;2023-09-18T01:09:21;11.85;;;2.92;;
72205;SDS011;60111;48.286;7.812;2023-09-18T01:11:57;5.80;;;2.57;;
72205;SDS011;60111;48.286;7.812;2023-09-18T01:17:39;7.42;;;2.75;;
72205;SDS011;60111;48.286;7.812;2023-09-18T01:20:12;10.37;;;2.93;;
72205;SDS011;60111;48.286;7.812;2023-09-18T01:22:45;5.20;;;2.85;;
72205;SDS011;60111;48.286;7.812;2023-09-18T01:25:17;7.70;;;2.92;;
72205;SDS011;60111;48.286;7.812;2023-09-18T01:27:50;5.97;;;2.67;;
72205;SDS011;60111;48.286;7.812;2023-09-18T01:30:23;6.87;;;2.90;;
72205;SDS011;60111;48.286;7.812;2023-09-18T01:32:58;9.25;;;3.22;;
72205;SDS011;60111;48.286;7.812;2023-09-18T01:35:33;9.23;;;3.17;;
72205;SDS011;60111;48.286;7.812;2023-09-18T01:38:06;5.95;;;3.10;;
72205;SDS011;60111;48.286;7.812;2023-09-18T01:40:40;8.13;;;3.22;;
72205;SDS011;60111;48.286;7.812;2023-09-18T01:43:15;6.20;;;3.47;;
72205;SDS011;60111;48.286;7.812;2023-09-18T01:45:47;10.00;;;3.10;;
72205;SDS011;60111;48.286;7.812;2023-09-18T01:48:21;7.60;;;3.20;;
72205;SDS011;60111;48.286;7.812;2023-09-18T01:50:53;6.30;;;3.40;;
72205;SDS011;60111;48.286;7.812;2023-09-18T01:53:26;8.93;;;3.40;;
72205;SDS011;60111;48.286;7.812;2023-09-18T01:55:59;7.65;;;3.22;;
72205;SDS011;60111;48.286;7.812;2023-09-18T02:01:24;8.45;;;3.10;;
72205;SDS011;60111;48.286;7.812;2023-09-18T02:03:56;9.83;;;3.60;;
72205;SDS011;60111;48.286;7.812;2023-09-18T02:06:29;10.50;;;3.57;;
72205;SDS011;60111;48.286;7.812;2023-09-18T02:09:02;10.23;;;3.67;;
72205;SDS011;60111;48.286;7.812;2023-09-18T02:11:36;6.17;;;3.12;;
72205;SDS011;60111;48.286;7.812;2023-09-18T02:14:10;10.58;;;3.92;;
72205;SDS011;60111;48.286;7.812;2023-09-18T02:16:43;9.28;;;3.55;;
72205;SDS011;60111;48.286;7.812;2023-09-18T02:19:16;7.03;;;3.33;;
72205;SDS011;60111;48.286;7.812;2023-09-18T02:21:50;7.70;;;3.72;;
72205;SDS011;60111;48.286;7.812;2023-09-18T02:24:23;6.42;;;3.47;;
72205;SDS011;60111;48.286;7.812;2023-09-18T02:26:56;6.12;;;3.10;;
72205;SDS011;60111;48.286;7.812;2023-09-18T02:29:28;6.50;;;3.47;;
72205;SDS011;60111;48.286;7.812;2023-09-18T02:32:01;8.08;;;3.55;;
72205;SDS011;60111;48.286;7.812;2023-09-18T02:34:34;7.28;;;3.70;;
72205;SDS011;60111;48.286;7.812;2023-09-18T02:37:06;7.08;;;3.45;;
72205;SDS011;60111;48.286;7.812;2023-09-18T02:39:39;8.65;;;3.70;;
72205;SDS011;60111;48.286;7.812;2023-09-18T02:42:11;7.00;;;3.50;;
72205;SDS011;60111;48.286;7.812;2023-09-18T02:44:44;11.25;;;4.05;;
72205;SDS011;60111;48.286;7.812;2023-09-18T02:47:16;20.35;;;4.55;;
72205;SDS011;60111;48.286;7.812;2023-09-18T02:49:49;19.90;;;4.75;;
72205;SDS011;60111;48.286;7.812;2023-09-18T02:52:22;21.90;;;4.80;;
72205;SDS011;60111;48.286;7.812;2023-09-18T02:54:54;24.17;;;5.07;;
72205;SDS011;60111;48.286;7.812;2023-09-18T02:57:27;18.05;;;4.90;;
72205;SDS011;60111;48.286;7.812;2023-09-18T02:59:59;17.70;;;4.27;;
72205;SDS011;60111;48.286;7.812;2023-09-18T03:02:32;16.10;;;4.75;;
72205;SDS011;60111;48.286;7.812;2023-09-18T03:05:06;16.57;;;3.80;;
72205;SDS011;60111;48.286;7.812;2023-09-18T03:07:39;17.80;;;4.40;;
72205;SDS011;60111;48.286;7.812;2023-09-18T03:10:12;13.38;;;3.40;;
72205;SDS011;60111;48.286;7.812;2023-09-18T03:12:49;18.70;;;3.97;;
72205;SDS011;60111;48.286;7.812;2023-09-18T03:15:22;7.17;;;2.85;;
72205;SDS011;60111;48.286;7.812;2023-09-18T03:17:54;8.93;;;2.75;;
72205;SDS011;60111;48.286;7.812;2023-09-18T03:20:27;8.73;;;2.75;;
72205;SDS011;60111;48.286;7.812;2023-09-18T03:23:01;10.63;;;2.43;;
72205;SDS011;60111;48.286;7.812;2023-09-18T03:25:35;6.87;;;2.30;;
72205;SDS011;60111;48.286;7.812;2023-09-18T03:28:09;6.47;;;2.33;;
72205;SDS011;60111;48.286;7.812;2023-09-18T03:30:42;10.85;;;2.15;;
72205;SDS011;60111;48.286;7.812;2023-09-18T03:33:14;5.33;;;1.60;;
72205;SDS011;60111;48.286;7.812;2023-09-18T03:35:48;9.48;;;2.22;;
72205;SDS011;60111;48.286;7.812;2023-09-18T03:38:21;6.92;;;2.12;;
72205;SDS011;60111;48.286;7.812;2023-09-18T03:40:55;9.08;;;2.50;;
72205;SDS011;60111;48.286;7.812;2023-09-18T03:43:29;9.58;;;2.40;;
72205;SDS011;60111;48.286;7.812;2023-09-18T03:46:06;5.15;;;2.52;;
72205;SDS011;60111;48.286;7.812;2023-09-18T03:48:39;8.68;;;2.45;;
72205;SDS011;60111;48.286;7.812;2023-09-18T03:51:11;7.47;;;2.67;;
72205;SDS011;60111;48.286;7.812;2023-09-18T03:53:45;10.53;;;3.23;;
72205;SDS011;60111;48.286;7.812;2023-09-18T03:56:18;8.60;;;2.73;;
72205;SDS011;60111;48.286;7.812;2023-09-18T03:58:52;8.23;;;2.63;;
72205;SDS011;60111;48.286;7.812;2023-09-18T04:01:25;15.28;;;3.40;;
72205;SDS011;60111;48.286;7.812;2023-09-18T04:03:57;12.93;;;3.17;;
72205;SDS011;60111;48.286;7.812;2023-09-18T04:06:40;14.27;;;2.93;;
72205;SDS011;60111;48.286;7.812;2023-09-18T04:09:15;15.13;;;3.73;;
72205;SDS011;60111;48.286;7.812;2023-09-18T04:11:48;8.80;;;2.90;;
72205;SDS011;60111;48.286;7.812;2023-09-18T04:14:21;10.43;;;3.10;;
72205;SDS011;60111;48.286;7.812;2023-09-18T04:16:54;8.20;;;2.90;;
72205;SDS011;60111;48.286;7.812;2023-09-18T04:19:26;18.75;;;4.12;;
72205;SDS011;60111;48.286;7.812;2023-09-18T04:21:59;9.63;;;3.50;;
72205;SDS011;60111;48.286;7.812;2023-09-18T04:24:32;12.37;;;3.00;;
72205;SDS011;60111;48.286;7.812;2023-09-18T04:27:05;13.65;;;3.50;;
72205;SDS011;60111;48.286;7.812;2023-09-18T04:29:38;12.05;;;3.35;;
72205;SDS011;60111;48.286;7.812;2023-09-18T04:32:11;11.70;;;3.08;;
72205;SDS011;60111;48.286;7.812;2023-09-18T04:34:43;8.00;;;3.10;;
72205;SDS011;60111;48.286;7.812;2023-09-18T04:37:16;15.98;;;3.15;;
72205;SDS011;60111;48.286;7.812;2023-09-18T04:39:49;10.45;;;2.83;;
72205;SDS011;60111;48.286;7.812;2023-09-18T04:42:22;11.80;;;2.27;;
72205;SDS011;60111;48.286;7.812;2023-09-18T04:44:54;10.70;;;2.65;;
72205;SDS011;60111;48.286;7.812;2023-09-18T04:47:27;8.20;;;2.55;;
72205;SDS011;60111;48.286;7.812;2023-09-18T04:49:59;10.32;;;2.80;;
72205;SDS011;60111;48.286;7.812;2023-09-18T04:52:33;8.80;;;2.60;;
72205;SDS011;60111;48.286;7.812;2023-09-18T04:55:06;10.28;;;2.27;;
72205;SDS011;60111;48.286;7.812;2023-09-18T04:57:39;9.33;;;2.92;;
72205;SDS011;60111;48.286;7.812;2023-09-18T05:00:12;8.43;;;2.42;;
72205;SDS011;60111;48.286;7.812;2023-09-18T05:02:45;6.57;;;2.13;;
72205;SDS011;60111;48.286;7.812;2023-09-18T05:05:18;10.28;;;2.33;;
72205;SDS011;60111;48.286;7.812;2023-09-18T05:07:50;9.58;;;1.98;;
72205;SDS011;60111;48.286;7.812;2023-09-18T05:10:23;3.20;;;1.62;;
72205;SDS011;60111;48.286;7.812;2023-09-18T05:12:56;5.47;;;1.80;;
72205;SDS011;60111;48.286;7.812;2023-09-18T05:15:32;6.60;;;1.85;;
72205;SDS011;60111;48.286;7.812;2023-09-18T05:18:06;10.93;;;1.92;;
72205;SDS011;60111;48.286;7.812;2023-09-18T05:20:39;4.87;;;1.60;;
72205;SDS011;60111;48.286;7.812;2023-09-18T05:23:12;5.17;;;1.50;;
72205;SDS011;60111;48.286;7.812;2023-09-18T05:25:45;7.10;;;1.70;;
72205;SDS011;60111;48.286;7.812;2023-09-18T05:28:17;3.90;;;1.20;;
72205;SDS011;60111;48.286;7.812;2023-09-18T05:30:50;5.72;;;1.30;;
72205;SDS011;60111;48.286;7.812;2023-09-18T05:35:57;4.33;;;1.32;;
72205;SDS011;60111;48.286;7.812;2023-09-18T05:38:30;3.37;;;1.10;;
72205;SDS011;60111;48.286;7.812;2023-09-18T05:41:03;4.20;;;1.20;;
72205;SDS011;60111;48.286;7.812;2023-09-18T05:43:36;2.65;;;1.10;;
72205;SDS011;60111;48.286;7.812;2023-09-18T05:46:08;2.98;;;0.95;;
72205;SDS011;60111;48.286;7.812;2023-09-18T05:48:41;2.25;;;1.20;;
72205;SDS011;60111;48.286;7.812;2023-09-18T05:51:14;6.15;;;1.17;;
72205;SDS011;60111;48.286;7.812;2023-09-18T05:53:46;4.33;;;1.20;;
72205;SDS011;60111;48.286;7.812;2023-09-18T05:56:19;5.83;;;1.17;;
72205;SDS011;60111;48.286;7.812;2023-09-18T05:58:52;3.40;;;1.30;;
72205;SDS011;60111;48.286;7.812;2023-09-18T06:01:26;6.17;;;1.10;;
72205;SDS011;60111;48.286;7.812;2023-09-18T06:03:58;4.22;;;1.35;;
72205;SDS011;60111;48.286;7.812;2023-09-18T06:06:33;4.20;;;1.05;;
72205;SDS011;60111;48.286;7.812;2023-09-18T06:09:06;3.97;;;1.20;;
72205;SDS011;60111;48.286;7.812;2023-09-18T06:11:42;2.37;;;1.10;;
72205;SDS011;60111;48.286;7.812;2023-09-18T06:14:18;3.25;;;1.27;;
72205;SDS011;60111;48.286;7.812;2023-09-18T06:16:51;3.67;;;1.17;;
72205;SDS011;60111;48.286;7.812;2023-09-18T06:19:23;2.25;;;1.12;;
72205;SDS011;60111;48.286;7.812;2023-09-18T06:21:56;2.58;;;0.90;;
72205;SDS011;60111;48.286;7.812;2023-09-18T06:24:28;3.58;;;1.25;;
72205;SDS011;60111;48.286;7.812;2023-09-18T06:27:02;6.33;;;1.20;;
72205;SDS011;60111;48.286;7.812;2023-09-18T06:29:38;6.92;;;1.62;;
72205;SDS011;60111;48.286;7.812;2023-09-18T06:32:12;4.28;;;1.20;;
72205;SDS011;60111;48.286;7.812;2023-09-18T06:34:45;7.00;;;1.73;;
72205;SDS011;60111;48.286;7.812;2023-09-18T06:37:18;5.60;;;1.37;;
72205;SDS011;60111;48.286;7.812;2023-09-18T06:39:51;6.42;;;1.60;;
72205;SDS011;60111;48.286;7.812;2023-09-18T06:42:24;2.73;;;1.33;;
72205;SDS011;60111;48.286;7.812;2023-09-18T06:44:56;4.90;;;1.60;;
72205;SDS011;60111;48.286;7.812;2023-09-18T06:47:29;2.92;;;1.35;;
72205;SDS011;60111;48.286;7.812;2023-09-18T06:50:03;9.48;;;1.67;;
72205;SDS011;60111;48.286;7.812;2023-09-18T06:52:36;6.97;;;1.37;;
72205;SDS011;60111;48.286;7.812;2023-09-18T06:55:09;5.90;;;1.60;;
72205;SDS011;60111;48.286;7.812;2023-09-18T06:57:41;3.58;;;1.35;;
72205;SDS011;60111;48.286;7.812;2023-09-18T07:00:15;2.50;;;1.40;;
72205;SDS011;60111;48.286;7.812;2023-09-18T07:02:50;4.83;;;1.70;;
72205;SDS011;60111;48.286;7.812;2023-09-18T07:05:23;3.17;;;1.30;;
72205;SDS011;60111;48.286;7.812;2023-09-18T07:07:56;3.35;;;1.50;;
72205;SDS011;60111;48.286;7.812;2023-09-18T07:10:28;3.33;;;1.37;;
72205;SDS011;60111;48.286;7.812;2023-09-18T07:13:01;7.70;;;1.33;;
72205;SDS011;60111;48.286;7.812;2023-09-18T07:15:33;6.60;;;1.67;;
72205;SDS011;60111;48.286;7.812;2023-09-18T07:18:06;6.27;;;1.40;;
72205;SDS011;60111;48.286;7.812;2023-09-18T07:20:40;4.67;;;1.40;;
72205;SDS011;60111;48.286;7.812;2023-09-18T07:23:13;7.45;;;1.60;;
72205;SDS011;60111;48.286;7.812;2023-09-18T07:25:48;5.37;;;1.50;;
72205;SDS011;60111;48.286;7.812;2023-09-18T07:28:21;7.15;;;1.62;;
72205;SDS011;60111;48.286;7.812;2023-09-18T07:30:53;5.62;;;1.40;;
72205;SDS011;60111;48.286;7.812;2023-09-18T07:33:26;5.78;;;1.82;;
72205;SDS011;60111;48.286;7.812;2023-09-18T07:35:59;6.70;;;1.67;;
72205;SDS011;60111;48.286;7.812;2023-09-18T07:38:31;6.03;;;1.62;;
72205;SDS011;60111;48.286;7.812;2023-09-18T07:41:04;3.90;;;1.30;;
72205;SDS011;60111;48.286;7.812;2023-09-18T07:43:37;7.08;;;1.85;;
72205;SDS011;60111;48.286;7.812;2023-09-18T07:46:10;7.28;;;1.70;;
72205;SDS011;60111;48.286;7.812;2023-09-18T07:48:43;8.45;;;1.75;;
72205;SDS011;60111;48.286;7.812;2023-09-18T07:51:16;6.17;;;1.50;;
72205;SDS011;60111;48.286;7.812;2023-09-18T07:53:48;6.30;;;1.70;;
72205;SDS011;60111;48.286;7.812;2023-09-18T07:56:21;6.92;;;1.45;;
72205;SDS011;60111;48.286;7.812;2023-09-18T07:58:53;5.55;;;1.60;;
72205;SDS011;60111;48.286;7.812;2023-09-18T08:01:27;3.37;;;1.50;;
72205;SDS011;60111;48.286;7.812;2023-09-18T08:04:01;4.97;;;1.43;;
72205;SDS011;60111;48.286;7.812;2023-09-18T08:06:34;4.65;;;1.37;;
72205;SDS011;60111;48.286;7.812;2023-09-18T08:09:06;2.20;;;1.22;;
72205;SDS011;60111;48.286;7.812;2023-09-18T08:14:13;3.90;;;1.37;;
72205;SDS011;60111;48.286;7.812;2023-09-18T08:16:46;5.15;;;1.55;;
72205;SDS011;60111;48.286;7.812;2023-09-18T08:19:18;3.08;;;1.27;;
72205;SDS011;60111;48.286;7.812;2023-09-18T08:21:56;7.00;;;1.40;;
72205;SDS011;60111;48.286;7.812;2023-09-18T08:24:26;3.52;;;1.40;;
72205;SDS011;60111;48.286;7.812;2023-09-18T08:26:59;4.37;;;0.90;;
72205;SDS011;60111;48.286;7.812;2023-09-18T08:29:33;5.92;;;1.22;;
72205;SDS011;60111;48.286;7.812;2023-09-18T08:32:05;2.53;;;0.83;;
72205;SDS011;60111;48.286;7.812;2023-09-18T08:34:38;3.98;;;1.05;;
72205;SDS011;60111;48.286;7.812;2023-09-18T08:37:11;2.22;;;0.90;;
72205;SDS011;60111;48.286;7.812;2023-09-18T08:39:43;4.47;;;1.10;;
72205;SDS011;60111;48.286;7.812;2023-09-18T08:42:16;2.40;;;1.00;;
72205;SDS011;60111;48.286;7.812;2023-09-18T08:44:51;4.42;;;1.15;;
72205;SDS011;60111;48.286;7.812;2023-09-18T08:47:25;3.53;;;1.03;;
72205;SDS011;60111;48.286;7.812;2023-09-18T08:49:58;1.57;;;0.97;;
72205;SDS011;60111;48.286;7.812;2023-09-18T08:52:34;2.40;;;0.90;;
72205;SDS011;60111;48.286;7.812;2023-09-18T08:55:08;3.70;;;0.95;;
72205;SDS011;60111;48.286;7.812;2023-09-18T08:57:41;4.42;;;1.02;;
72205;SDS011;60111;48.286;7.812;2023-09-18T09:00:14;2.10;;;1.30;;
72205;SDS011;60111;48.286;7.812;2023-09-18T09:05:40;4.90;;;1.10;;
72205;SDS011;60111;48.286;7.812;2023-09-18T09:08:13;1.95;;;0.90;;
72205;SDS011;60111;48.286;7.812;2023-09-18T09:10:45;2.02;;;0.78;;
72205;SDS011;60111;48.286;7.812;2023-09-18T09:13:18;1.43;;;1.00;;
72205;SDS011;60111;48.286;7.812;2023-09-18T09:15:53;4.20;;;1.10;;
72205;SDS011;60111;48.286;7.812;2023-09-18T09:18:29;7.50;;;1.00;;
72205;SDS011;60111;48.286;7.812;2023-09-18T09:21:03;3.75;;;1.22;;
72205;SDS011;60111;48.286;7.812;2023-09-18T09:23:51;2.85;;;1.05;;
72205;SDS011;60111;48.286;7.812;2023-09-18T09:26:24;2.52;;;1.10;;
72205;SDS011;60111;48.286;7.812;2023-09-18T09:28:56;2.30;;;1.20;;
72205;SDS011;60111;48.286;7.812;2023-09-18T09:31:30;1.83;;;1.00;;
72205;SDS011;60111;48.286;7.812;2023-09-18T09:34:03;4.42;;;1.00;;
72205;SDS011;60111;48.286;7.812;2023-09-18T09:36:36;3.22;;;1.00;;
72205;SDS011;60111;48.286;7.812;2023-09-18T09:39:10;1.72;;;0.80;;
72205;SDS011;60111;48.286;7.812;2023-09-18T09:41:47;3.25;;;1.00;;
72205;SDS011;60111;48.286;7.812;2023-09-18T09:44:21;5.53;;;1.52;;
72205;SDS011;60111;48.286;7.812;2023-09-18T09:46:53;2.17;;;0.90;;
72205;SDS011;60111;48.286;7.812;2023-09-18T09:49:26;2.17;;;0.95;;
72205;SDS011;60111;48.286;7.812;2023-09-18T09:52:00;2.83;;;0.93;;
72205;SDS011;60111;48.286;7.812;2023-09-18T09:54:34;1.82;;;0.90;;
72205;SDS011;60111;48.286;7.812;2023-09-18T09:57:09;2.87;;;1.42;;
72205;SDS011;60111;48.286;7.812;2023-09-18T09:59:41;4.67;;;1.20;;
72205;SDS011;60111;48.286;7.812;2023-09-18T10:02:15;4.30;;;0.95;;
72205;SDS011;60111;48.286;7.812;2023-09-18T10:04:51;3.62;;;1.10;;
72205;SDS011;60111;48.286;7.812;2023-09-18T10:07:24;7.30;;;1.53;;
72205;SDS011;60111;48.286;7.812;2023-09-18T10:09:57;3.70;;;1.07;;
72205;SDS011;60111;48.286;7.812;2023-09-18T10:12:32;3.08;;;1.12;;
72205;SDS011;60111;48.286;7.812;2023-09-18T10:15:05;6.08;;;1.15;;
72205;SDS011;60111;48.286;7.812;2023-09-18T10:17:41;1.72;;;1.02;;
72205;SDS011;60111;48.286;7.812;2023-09-18T10:20:16;1.90;;;1.30;;
72205;SDS011;60111;48.286;7.812;2023-09-18T10:22:54;6.90;;;1.77;;
72205;SDS011;60111;48.286;7.812;2023-09-18T10:25:29;4.60;;;1.65;;
72205;SDS011;60111;48.286;7.812;2023-09-18T10:28:03;4.70;;;1.32;;
72205;SDS011;60111;48.286;7.812;2023-09-18T10:30:38;5.33;;;1.30;;
72205;SDS011;60111;48.286;7.812;2023-09-18T10:33:12;7.97;;;1.22;;
72205;SDS011;60111;48.286;7.812;2023-09-18T10:35:45;5.37;;;1.55;;
72205;SDS011;60111;48.286;7.812;2023-09-18T10:38:18;5.23;;;1.77;;
72205;SDS011;60111;48.286;7.812;2023-09-18T10:40:51;3.45;;;1.35;;
72205;SDS011;60111;48.286;7.812;2023-09-18T10:43:25;2.40;;;1.10;;
72205;SDS011;60111;48.286;7.812;2023-09-18T10:45:58;2.22;;;1.10;;
72205;SDS011;60111;48.286;7.812;2023-09-18T10:48:31;4.15;;;1.22;;
72205;SDS011;60111;48.286;7.812;2023-09-18T10:51:04;4.55;;;1.50;;
72205;SDS011;60111;48.286;7.812;2023-09-18T10:53:36;2.47;;;1.10;;
72205;SDS011;60111;48.286;7.812;2023-09-18T10:56:09;1.87;;;1.22;;
72205;SDS011;60111;48.286;7.812;2023-09-18T10:58:42;5.80;;;1.45;;
72205;SDS011;60111;48.286;7.812;2023-09-18T11:01:15;4.85;;;1.37;;
72205;SDS011;60111;48.286;7.812;2023-09-18T11:03:50;5.53;;;1.10;;
72205;SDS011;60111;48.286;7.812;2023-09-18T11:06:23;2.17;;;0.90;;
72205;SDS011;60111;48.286;7.812;2023-09-18T11:09:01;4.12;;;1.22;;
72205;SDS011;60111;48.286;7.812;2023-09-18T11:11:36;3.12;;;1.27;;
72205;SDS011;60111;48.286;7.812;2023-09-18T11:14:10;2.95;;;1.12;;
72205;SDS011;60111;48.286;7.812;2023-09-18T11:16:43;4.03;;;1.53;;
72205;SDS011;60111;48.286;7.812;2023-09-18T11:19:17;1.45;;;1.05;;
72205;SDS011;60111;48.286;7.812;2023-09-18T11:21:50;4.23;;;1.27;;
72205;SDS011;60111;48.286;7.812;2023-09-18T11:24:26;2.47;;;1.07;;
72205;SDS011;60111;48.286;7.812;2023-09-18T11:27:00;4.40;;;1.20;;
72205;SDS011;60111;48.286;7.812;2023-09-18T11:29:34;3.50;;;1.27;;
72205;SDS011;60111;48.286;7.812;2023-09-18T11:32:08;6.03;;;1.12;;
72205;SDS011;60111;48.286;7.812;2023-09-18T11:34:41;3.60;;;1.10;;
72205;SDS011;60111;48.286;7.812;2023-09-18T11:37:20;3.05;;;1.10;;
72205;SDS011;60111;48.286;7.812;2023-09-18T11:39:54;2.57;;;0.90;;
72205;SDS011;60111;48.286;7.812;2023-09-18T11:42:27;3.10;;;1.20;;
72205;SDS011;60111;48.286;7.812;2023-09-18T11:45:00;4.25;;;1.20;;
72205;SDS011;60111;48.286;7.812;2023-09-18T11:50:27;3.15;;;0.93;;
72205;SDS011;60111;48.286;7.812;2023-09-18T11:53:01;2.22;;;1.10;;
72205;SDS011;60111;48.286;7.812;2023-09-18T11:55:35;5.47;;;1.20;;
72205;SDS011;60111;48.286;7.812;2023-09-18T11:58:09;2.52;;;0.90;;
72205;SDS011;60111;48.286;7.812;2023-09-18T12:00:42;2.25;;;0.93;;
72205;SDS011;60111;48.286;7.812;2023-09-18T12:03:19;4.12;;;1.20;;
72205;SDS011;60111;48.286;7.812;2023-09-18T12:05:58;5.87;;;1.35;;
72205;SDS011;60111;48.286;7.812;2023-09-18T12:08:36;5.55;;;1.22;;
72205;SDS011;60111;48.286;7.812;2023-09-18T12:11:08;3.70;;;0.82;;
72205;SDS011;60111;48.286;7.812;2023-09-18T12:13:43;4.00;;;1.40;;
72205;SDS011;60111;48.286;7.812;2023-09-18T12:16:16;1.87;;;0.98;;
72205;SDS011;60111;48.286;7.812;2023-09-18T12:18:49;2.40;;;1.10;;
72205;SDS011;60111;48.286;7.812;2023-09-18T12:21:22;2.27;;;0.90;;
72205;SDS011;60111;48.286;7.812;2023-09-18T12:23:54;2.33;;;1.00;;
72205;SDS011;60111;48.286;7.812;2023-09-18T12:26:27;5.10;;;1.10;;
72205;SDS011;60111;48.286;7.812;2023-09-18T12:29:01;1.85;;;1.00;;
72205;SDS011;60111;48.286;7.812;2023-09-18T12:31:35;2.10;;;0.80;;
72205;SDS011;60111;48.286;7.812;2023-09-18T12:34:42;1.80;;;0.93;;
72205;SDS011;60111;48.286;7.812;2023-09-18T12:36:52;4.30;;;1.07;;
72205;SDS011;60111;48.286;7.812;2023-09-18T12:39:24;3.77;;;1.05;;
72205;SDS011;60111;48.286;7.812;2023-09-18T12:42:01;1.07;;;0.80;;
72205;SDS011;60111;48.286;7.812;2023-09-18T12:44:34;3.07;;;0.90;;
72205;SDS011;60111;48.286;7.812;2023-09-18T12:47:07;3.08;;;0.90;;
72205;SDS011;60111;48.286;7.812;2023-09-18T12:49:40;2.25;;;1.05;;
72205;SDS011;60111;48.286;7.812;2023-09-18T12:52:13;4.17;;;1.00;;
72205;SDS011;60111;48.286;7.812;2023-09-18T12:54:47;3.17;;;1.10;;
72205;SDS011;60111;48.286;7.812;2023-09-18T12:57:21;2.02;;;0.82;;
72205;SDS011;60111;48.286;7.812;2023-09-18T12:59:54;1.00;;;0.80;;
72205;SDS011;60111;48.286;7.812;2023-09-18T13:02:27;2.35;;;0.95;;
72205;SDS011;60111;48.286;7.812;2023-09-18T13:04:59;2.70;;;0.90;;
72205;SDS011;60111;48.286;7.812;2023-09-18T13:07:32;3.60;;;0.90;;
72205;SDS011;60111;48.286;7.812;2023-09-18T13:10:09;2.53;;;0.90;;
72205;SDS011;60111;48.286;7.812;2023-09-18T13:12:42;2.02;;;1.00;;
72205;SDS011;60111;48.286;7.812;2023-09-18T13:15:29;1.90;;;0.90;;
72205;SDS011;60111;48.286;7.812;2023-09-18T13:18:10;2.42;;;0.88;;
72205;SDS011;60111;48.286;7.812;2023-09-18T13:20:43;2.42;;;0.90;;
72205;SDS011;60111;48.286;7.812;2023-09-18T13:23:16;2.73;;;0.90;;
72205;SDS011;60111;48.286;7.812;2023-09-18T13:25:49;2.72;;;0.80;;
72205;SDS011;60111;48.286;7.812;2023-09-18T13:28:21;2.15;;;0.75;;
72205;SDS011;60111;48.286;7.812;2023-09-18T13:30:54;2.35;;;0.90;;
72205;SDS011;60111;48.286;7.812;2023-09-18T13:33:27;3.02;;;0.90;;
72205;SDS011;60111;48.286;7.812;2023-09-18T13:35:59;1.97;;;0.80;;
72205;SDS011;60111;48.286;7.812;2023-09-18T13:38:32;2.40;;;0.90;;
72205;SDS011;60111;48.286;7.812;2023-09-18T13:41:05;2.65;;;0.70;;
72205;SDS011;60111;48.286;7.812;2023-09-18T13:43:37;1.67;;;0.85;;
72205;SDS011;60111;48.286;7.812;2023-09-18T13:46:10;6.58;;;1.15;;
72205;SDS011;60111;48.286;7.812;2023-09-18T13:48:42;1.70;;;1.00;;
72205;SDS011;60111;48.286;7.812;2023-09-18T13:51:15;1.77;;;1.00;;
72205;SDS011;60111;48.286;7.812;2023-09-18T13:53:48;4.97;;;1.10;;
72205;SDS011;60111;48.286;7.812;2023-09-18T13:56:20;2.37;;;1.00;;
72205;SDS011;60111;48.286;7.812;2023-09-18T13:58:54;2.62;;;1.05;;
72205;SDS011;60111;48.286;7.812;2023-09-18T14:01:27;1.82;;;0.98;;
72205;SDS011;60111;48.286;7.812;2023-09-18T14:03:59;2.08;;;0.98;;
72205;SDS011;60111;48.286;7.812;2023-09-18T14:06:32;2.80;;;1.15;;
72205;SDS011;60111;48.286;7.812;2023-09-18T14:09:05;1.90;;;1.10;;
72205;SDS011;60111;48.286;7.812;2023-09-18T14:11:37;3.03;;;1.00;;
72205;SDS011;60111;48.286;7.812;2023-09-18T14:14:10;6.42;;;1.65;;
72205;SDS011;60111;48.286;7.812;2023-09-18T14:16:43;1.98;;;1.05;;
72205;SDS011;60111;48.286;7.812;2023-09-18T14:19:16;2.22;;;1.00;;
72205;SDS011;60111;48.286;7.812;2023-09-18T14:21:48;3.10;;;0.80;;
72205;SDS011;60111;48.286;7.812;2023-09-18T14:24:21;1.90;;;0.93;;
72205;SDS011;60111;48.286;7.812;2023-09-18T14:26:55;2.40;;;0.90;;
72205;SDS011;60111;48.286;7.812;2023-09-18T14:29:28;3.65;;;1.27;;
72205;SDS011;60111;48.286;7.812;2023-09-18T14:32:01;3.77;;;1.17;;
72205;SDS011;60111;48.286;7.812;2023-09-18T14:34:35;8.20;;;1.13;;
72205;SDS011;60111;48.286;7.812;2023-09-18T14:37:07;5.37;;;1.12;;
72205;SDS011;60111;48.286;7.812;2023-09-18T14:39:40;2.80;;;0.90;;
72205;SDS011;60111;48.286;7.812;2023-09-18T14:42:13;1.95;;;1.10;;
72205;SDS011;60111;48.286;7.812;2023-09-18T14:44:45;2.62;;;1.10;;
72205;SDS011;60111;48.286;7.812;2023-09-18T14:47:18;4.40;;;1.17;;
72205;SDS011;60111;48.286;7.812;2023-09-18T14:49:51;2.20;;;1.03;;
72205;SDS011;60111;48.286;7.812;2023-09-18T14:52:24;5.53;;;1.40;;
72205;SDS011;60111;48.286;7.812;2023-09-18T14:54:56;5.25;;;1.40;;
72205;SDS011;60111;48.286;7.812;2023-09-18T14:57:31;3.72;;;1.10;;
72205;SDS011;60111;48.286;7.812;2023-09-18T15:00:04;4.25;;;1.10;;
72205;SDS011;60111;48.286;7.812;2023-09-18T15:02:38;1.87;;;1.10;;
72205;SDS011;60111;48.286;7.812;2023-09-18T15:05:10;2.95;;;1.00;;
72205;SDS011;60111;48.286;7.812;2023-09-18T15:07:45;1.70;;;1.17;;
72205;SDS011;60111;48.286;7.812;2023-09-18T15:10:17;1.92;;;1.20;;
72205;SDS011;60111;48.286;7.812;2023-09-18T15:12:50;4.53;;;1.07;;
72205;SDS011;60111;48.286;7.812;2023-09-18T15:15:22;4.20;;;1.32;;
72205;SDS011;60111;48.286;7.812;2023-09-18T15:17:55;1.60;;;0.83;;
72205;SDS011;60111;48.286;7.812;2023-09-18T15:20:28;3.40;;;1.07;;
72205;SDS011;60111;48.286;7.812;2023-09-18T15:23:00;5.12;;;1.32;;
72205;SDS011;60111;48.286;7.812;2023-09-18T15:25:33;3.65;;;1.20;;
72205;SDS011;60111;48.286;7.812;2023-09-18T15:30:39;7.35;;;1.50;;
72205;SDS011;60111;48.286;7.812;2023-09-18T15:33:13;2.90;;;1.07;;
72205;SDS011;60111;48.286;7.812;2023-09-18T15:35:47;3.00;;;1.20;;
72205;SDS011;60111;48.286;7.812;2023-09-18T15:38:20;1.73;;;1.20;;
72205;SDS011;60111;48.286;7.812;2023-09-18T15:43:26;2.47;;;1.17;;
72205;SDS011;60111;48.286;7.812;2023-09-18T15:46:00;2.42;;;1.05;;